sensor_id;sensor_type;location;lat;lon;timestamp;pressure;altitude;pressure_sealevel;temperature;humidity
57094;BME280;42970;50.996;3.706;2023-04-08T00:02:15;75599.78;;;-146.65;67.48
57094;BME280;42970;50.996;3.706;2023-04-08T00:04:41;75597.75;;;-146.65;67.45
57094;BME280;42970;50.996;3.706;2023-04-08T00:07:06;75613.88;;;-146.65;68.11
57094;BME280;42970;50.996;3.706;2023-04-08T00:09:32;75623.97;;;-146.65;68.41
57094;BME280;42970;50.996;3.706;2023-04-08T00:11:57;75634.06;;;-146.65;69.23
57094;BME280;42970;50.996;3.706;2023-04-08T00:14:22;75632.03;;;-146.65;69.72
57094;BME280;42970;50.996;3.706;2023-04-08T00:16:48;75611.88;;;-146.65;69.46
57094;BME280;42970;50.996;3.706;2023-04-08T00:19:14;75611.88;;;-146.65;69.16
57094;BME280;42970;50.996;3.706;2023-04-08T00:21:39;75636.06;;;-146.65;70.41
57094;BME280;42970;50.996;3.706;2023-04-08T00:24:05;75654.22;;;-146.65;70.86
57094;BME280;42970;50.996;3.706;2023-04-08T00:26:31;75644.16;;;-146.65;71.56
57094;BME280;42970;50.996;3.706;2023-04-08T00:28:57;75658.25;;;-146.65;72.34
57094;BME280;42970;50.996;3.706;2023-04-08T00:31:22;75632.03;;;-146.65;72.36
57094;BME280;42970;50.996;3.706;2023-04-08T00:33:47;75646.16;;;-146.65;72.68
57094;BME280;42970;50.996;3.706;2023-04-08T00:36:13;75621.97;;;-146.65;72.49
57094;BME280;42970;50.996;3.706;2023-04-08T00:38:38;75626.00;;;-146.65;72.44
57094;BME280;42970;50.996;3.706;2023-04-08T00:41:03;75623.97;;;-146.65;72.19
57094;BME280;42970;50.996;3.706;2023-04-08T00:43:29;75628.00;;;-146.65;72.37
57094;BME280;42970;50.996;3.706;2023-04-08T00:45:55;75611.88;;;-146.65;71.29
57094;BME280;42970;50.996;3.706;2023-04-08T00:48:20;75619.94;;;-146.65;71.43
57094;BME280;42970;50.996;3.706;2023-04-08T00:50:45;75611.88;;;-146.65;71.88
57094;BME280;42970;50.996;3.706;2023-04-08T00:53:12;75632.03;;;-146.65;72.41
57094;BME280;42970;50.996;3.706;2023-04-08T00:55:39;75656.25;;;-146.65;73.11
57094;BME280;42970;50.996;3.706;2023-04-08T00:58:04;75650.19;;;-146.65;73.25
57094;BME280;42970;50.996;3.706;2023-04-08T01:00:30;75658.25;;;-146.65;73.41
57094;BME280;42970;50.996;3.706;2023-04-08T01:07:49;75652.22;;;-146.65;72.08
57094;BME280;42970;50.996;3.706;2023-04-08T01:12:41;75672.38;;;-146.65;71.15
57094;BME280;42970;50.996;3.706;2023-04-08T01:15:08;75664.31;;;-146.65;70.18
57094;BME280;42970;50.996;3.706;2023-04-08T01:17:35;75660.28;;;-146.65;68.91
57094;BME280;42970;50.996;3.706;2023-04-08T01:20:02;75658.25;;;-146.65;68.31
57094;BME280;42970;50.996;3.706;2023-04-08T01:24:58;75712.72;;;-146.65;71.13
57094;BME280;42970;50.996;3.706;2023-04-08T01:27:26;75694.56;;;-146.65;71.82
57094;BME280;42970;50.996;3.706;2023-04-08T01:29:51;75660.28;;;-146.65;70.96
57094;BME280;42970;50.996;3.706;2023-04-08T01:32:17;75640.09;;;-146.65;70.48
57094;BME280;42970;50.996;3.706;2023-04-08T01:34:43;75636.06;;;-146.65;69.77
57094;BME280;42970;50.996;3.706;2023-04-08T01:37:09;75646.16;;;-146.65;69.42
57094;BME280;42970;50.996;3.706;2023-04-08T01:39:35;75634.06;;;-146.65;69.00
57094;BME280;42970;50.996;3.706;2023-04-08T01:42:02;75636.06;;;-146.65;69.52
57094;BME280;42970;50.996;3.706;2023-04-08T01:44:28;75634.06;;;-146.65;69.96
57094;BME280;42970;50.996;3.706;2023-04-08T01:46:54;75621.97;;;-146.65;69.96
57094;BME280;42970;50.996;3.706;2023-04-08T01:49:20;75638.09;;;-146.65;71.01
57094;BME280;42970;50.996;3.706;2023-04-08T01:51:46;75666.34;;;-146.65;71.00
57094;BME280;42970;50.996;3.706;2023-04-08T01:54:12;75670.38;;;-146.65;70.57
57094;BME280;42970;50.996;3.706;2023-04-08T01:56:38;75654.22;;;-146.65;70.63
57094;BME280;42970;50.996;3.706;2023-04-08T01:59:05;75652.22;;;-146.65;70.21
57094;BME280;42970;50.996;3.706;2023-04-08T02:01:33;75626.00;;;-146.65;69.64
57094;BME280;42970;50.996;3.706;2023-04-08T02:03:59;75617.94;;;-146.65;69.20
57094;BME280;42970;50.996;3.706;2023-04-08T02:06:26;75609.84;;;-146.65;68.72
57094;BME280;42970;50.996;3.706;2023-04-08T02:08:53;75597.75;;;-146.65;68.44
57094;BME280;42970;50.996;3.706;2023-04-08T02:11:19;75599.78;;;-146.65;68.16
57094;BME280;42970;50.996;3.706;2023-04-08T02:13:45;75613.88;;;-146.65;68.28
57094;BME280;42970;50.996;3.706;2023-04-08T02:16:23;75617.94;;;-146.65;67.82
57094;BME280;42970;50.996;3.706;2023-04-08T02:19:03;75601.78;;;-146.65;67.48
57094;BME280;42970;50.996;3.706;2023-04-08T02:24:14;75611.88;;;-146.65;67.17
57094;BME280;42970;50.996;3.706;2023-04-08T02:26:41;75607.84;;;-146.65;66.89
57094;BME280;42970;50.996;3.706;2023-04-08T02:29:09;75601.78;;;-146.65;67.05
57094;BME280;42970;50.996;3.706;2023-04-08T02:31:36;75583.63;;;-146.65;67.05
57094;BME280;42970;50.996;3.706;2023-04-08T02:34:03;75605.81;;;-146.65;67.11
57094;BME280;42970;50.996;3.706;2023-04-08T02:36:30;75603.81;;;-146.65;67.36
57094;BME280;42970;50.996;3.706;2023-04-08T02:38:57;75613.88;;;-146.65;67.23
57094;BME280;42970;50.996;3.706;2023-04-08T02:41:22;75601.78;;;-146.65;67.23
57094;BME280;42970;50.996;3.706;2023-04-08T02:43:48;75613.88;;;-146.65;67.04
57094;BME280;42970;50.996;3.706;2023-04-08T02:46:13;75611.88;;;-146.65;67.22
57094;BME280;42970;50.996;3.706;2023-04-08T02:48:38;75632.03;;;-146.65;68.05
57094;BME280;42970;50.996;3.706;2023-04-08T02:51:04;75630.03;;;-146.65;68.85
57094;BME280;42970;50.996;3.706;2023-04-08T02:53:29;75640.09;;;-146.65;69.24
57094;BME280;42970;50.996;3.706;2023-04-08T02:55:55;75632.03;;;-146.65;69.69
57094;BME280;42970;50.996;3.706;2023-04-08T02:58:20;75621.97;;;-146.65;69.65
57094;BME280;42970;50.996;3.706;2023-04-08T03:00:45;75617.94;;;-146.65;69.17
57094;BME280;42970;50.996;3.706;2023-04-08T03:03:11;75615.91;;;-146.65;69.00
57094;BME280;42970;50.996;3.706;2023-04-08T03:05:36;75611.88;;;-146.65;68.69
57094;BME280;42970;50.996;3.706;2023-04-08T03:08:01;75601.78;;;-146.65;68.59
57094;BME280;42970;50.996;3.706;2023-04-08T03:10:27;75619.94;;;-146.65;68.20
57094;BME280;42970;50.996;3.706;2023-04-08T03:12:52;75597.75;;;-146.65;68.29
57094;BME280;42970;50.996;3.706;2023-04-08T03:15:17;75605.81;;;-146.65;68.28
57094;BME280;42970;50.996;3.706;2023-04-08T03:17:43;75601.78;;;-146.65;68.36
57094;BME280;42970;50.996;3.706;2023-04-08T03:20:08;75603.81;;;-146.65;68.07
57094;BME280;42970;50.996;3.706;2023-04-08T03:22:34;75601.78;;;-146.65;67.75
57094;BME280;42970;50.996;3.706;2023-04-08T03:25:00;75601.78;;;-146.65;67.74
57094;BME280;42970;50.996;3.706;2023-04-08T03:27:25;75597.75;;;-146.65;67.42
57094;BME280;42970;50.996;3.706;2023-04-08T03:29:51;75601.78;;;-146.65;67.40
57094;BME280;42970;50.996;3.706;2023-04-08T03:32:17;75603.81;;;-146.65;67.49
57094;BME280;42970;50.996;3.706;2023-04-08T03:34:42;75593.72;;;-146.65;67.17
57094;BME280;42970;50.996;3.706;2023-04-08T03:37:08;75603.81;;;-146.65;67.50
57094;BME280;42970;50.996;3.706;2023-04-08T03:39:33;75613.88;;;-146.65;68.08
57094;BME280;42970;50.996;3.706;2023-04-08T03:41:58;75611.88;;;-146.65;68.16
57094;BME280;42970;50.996;3.706;2023-04-08T03:44:25;75621.97;;;-146.65;68.23
57094;BME280;42970;50.996;3.706;2023-04-08T03:46:50;75617.94;;;-146.65;68.23
57094;BME280;42970;50.996;3.706;2023-04-08T03:49:15;75617.94;;;-146.65;68.30
57094;BME280;42970;50.996;3.706;2023-04-08T03:51:41;75603.81;;;-146.65;67.89
57094;BME280;42970;50.996;3.706;2023-04-08T03:54:06;75583.63;;;-146.65;67.86
57094;BME280;42970;50.996;3.706;2023-04-08T03:56:31;75607.84;;;-146.65;68.00
57094;BME280;42970;50.996;3.706;2023-04-08T03:58:57;75619.94;;;-146.65;68.90
57094;BME280;42970;50.996;3.706;2023-04-08T04:01:22;75621.97;;;-146.65;69.47
57094;BME280;42970;50.996;3.706;2023-04-08T04:03:47;75621.97;;;-146.65;69.67
57094;BME280;42970;50.996;3.706;2023-04-08T04:06:13;75621.97;;;-146.65;69.78
57094;BME280;42970;50.996;3.706;2023-04-08T04:08:38;75628.00;;;-146.65;69.81
57094;BME280;42970;50.996;3.706;2023-04-08T04:11:03;75634.06;;;-146.65;70.18
57094;BME280;42970;50.996;3.706;2023-04-08T04:13:29;75636.06;;;-146.65;70.69
57094;BME280;42970;50.996;3.706;2023-04-08T04:15:54;75632.03;;;-146.65;70.92
57094;BME280;42970;50.996;3.706;2023-04-08T04:18:20;75634.06;;;-146.65;71.13
57094;BME280;42970;50.996;3.706;2023-04-08T04:20:46;75636.06;;;-146.65;71.17
57094;BME280;42970;50.996;3.706;2023-04-08T04:23:11;75613.88;;;-146.65;70.97
57094;BME280;42970;50.996;3.706;2023-04-08T04:25:39;75621.97;;;-146.65;70.34
57094;BME280;42970;50.996;3.706;2023-04-08T04:28:04;75617.94;;;-146.65;70.39
57094;BME280;42970;50.996;3.706;2023-04-08T04:30:30;75630.03;;;-146.65;70.19
57094;BME280;42970;50.996;3.706;2023-04-08T04:32:55;75654.22;;;-146.65;71.11
57094;BME280;42970;50.996;3.706;2023-04-08T04:35:23;75686.50;;;-146.65;72.00
57094;BME280;42970;50.996;3.706;2023-04-08T04:37:49;75666.34;;;-146.65;71.64
57094;BME280;42970;50.996;3.706;2023-04-08T04:40:16;75660.28;;;-146.65;71.57
57094;BME280;42970;50.996;3.706;2023-04-08T04:42:41;75648.19;;;-146.65;71.23
57094;BME280;42970;50.996;3.706;2023-04-08T04:45:07;75642.13;;;-146.65;71.44
57094;BME280;42970;50.996;3.706;2023-04-08T04:47:33;75642.13;;;-146.65;70.89
57094;BME280;42970;50.996;3.706;2023-04-08T04:49:58;75621.97;;;-146.65;70.49
57094;BME280;42970;50.996;3.706;2023-04-08T04:52:23;75642.13;;;-146.65;70.41
57094;BME280;42970;50.996;3.706;2023-04-08T04:54:49;75654.22;;;-146.65;70.46
57094;BME280;42970;50.996;3.706;2023-04-08T04:57:15;75664.31;;;-146.65;70.70
57094;BME280;42970;50.996;3.706;2023-04-08T04:59:40;75652.22;;;-146.65;70.58
57094;BME280;42970;50.996;3.706;2023-04-08T05:02:05;75644.16;;;-146.65;70.49
57094;BME280;42970;50.996;3.706;2023-04-08T05:04:31;75648.19;;;-146.65;70.33
57094;BME280;42970;50.996;3.706;2023-04-08T05:06:57;75650.19;;;-146.65;70.36
57094;BME280;42970;50.996;3.706;2023-04-08T05:09:23;75680.44;;;-146.65;69.81
57094;BME280;42970;50.996;3.706;2023-04-08T05:11:48;75662.31;;;-146.65;69.57
57094;BME280;42970;50.996;3.706;2023-04-08T05:14:14;75642.13;;;-146.65;68.97
57094;BME280;42970;50.996;3.706;2023-04-08T05:16:39;75650.19;;;-146.65;68.94
57094;BME280;42970;50.996;3.706;2023-04-08T05:19:05;75680.44;;;-146.65;69.58
57094;BME280;42970;50.996;3.706;2023-04-08T05:21:30;75674.41;;;-146.65;69.82
57094;BME280;42970;50.996;3.706;2023-04-08T05:23:56;75690.53;;;-146.65;69.77
57094;BME280;42970;50.996;3.706;2023-04-08T05:26:22;75688.53;;;-146.65;69.05
57094;BME280;42970;50.996;3.706;2023-04-08T05:28:47;75672.38;;;-146.65;68.67
57094;BME280;42970;50.996;3.706;2023-04-08T05:31:19;75656.25;;;-146.65;68.60
57094;BME280;42970;50.996;3.706;2023-04-08T05:33:45;75664.31;;;-146.65;68.57
57094;BME280;42970;50.996;3.706;2023-04-08T05:36:10;75656.25;;;-146.65;67.93
57094;BME280;42970;50.996;3.706;2023-04-08T05:38:36;75670.38;;;-146.65;67.80
57094;BME280;42970;50.996;3.706;2023-04-08T05:41:02;75664.31;;;-146.65;67.28
57094;BME280;42970;50.996;3.706;2023-04-08T05:43:33;75672.38;;;-146.65;66.93
57094;BME280;42970;50.996;3.706;2023-04-08T05:45:59;75666.34;;;-146.65;66.49
57094;BME280;42970;50.996;3.706;2023-04-08T05:48:24;75650.19;;;-146.65;66.08
57094;BME280;42970;50.996;3.706;2023-04-08T05:50:50;75662.31;;;-146.65;66.57
57094;BME280;42970;50.996;3.706;2023-04-08T05:53:15;75688.53;;;-146.65;67.24
57094;BME280;42970;50.996;3.706;2023-04-08T05:55:40;75698.59;;;-146.65;67.54
57094;BME280;42970;50.996;3.706;2023-04-08T05:58:06;75686.50;;;-146.65;67.74
57094;BME280;42970;50.996;3.706;2023-04-08T06:00:31;75690.53;;;-146.65;67.09
57094;BME280;42970;50.996;3.706;2023-04-08T06:02:57;75666.34;;;-146.65;66.51
57094;BME280;42970;50.996;3.706;2023-04-08T06:05:23;75664.31;;;-146.65;66.33
57094;BME280;42970;50.996;3.706;2023-04-08T06:07:48;75670.38;;;-146.65;66.04
57094;BME280;42970;50.996;3.706;2023-04-08T06:10:14;75654.22;;;-146.65;65.66
57094;BME280;42970;50.996;3.706;2023-04-08T06:12:40;75662.31;;;-146.65;65.26
57094;BME280;42970;50.996;3.706;2023-04-08T06:15:06;75642.13;;;-146.65;65.11
57094;BME280;42970;50.996;3.706;2023-04-08T06:17:31;75668.34;;;-146.65;65.11
57094;BME280;42970;50.996;3.706;2023-04-08T06:19:56;75648.19;;;-146.65;64.44
57094;BME280;42970;50.996;3.706;2023-04-08T06:22:22;75652.22;;;-146.65;64.88
57094;BME280;42970;50.996;3.706;2023-04-08T06:24:47;75674.41;;;-146.65;64.67
57094;BME280;42970;50.996;3.706;2023-04-08T06:27:12;75666.34;;;-146.65;64.40
57094;BME280;42970;50.996;3.706;2023-04-08T06:29:38;75662.31;;;-146.65;63.80
57094;BME280;42970;50.996;3.706;2023-04-08T06:32:03;75642.13;;;-146.65;63.30
57094;BME280;42970;50.996;3.706;2023-04-08T06:34:30;75658.25;;;-146.65;63.33
57094;BME280;42970;50.996;3.706;2023-04-08T06:36:55;75644.16;;;-146.65;63.62
57094;BME280;42970;50.996;3.706;2023-04-08T06:39:21;75626.00;;;-146.65;63.15
57094;BME280;42970;50.996;3.706;2023-04-08T06:41:46;75613.88;;;-146.65;63.41
57094;BME280;42970;50.996;3.706;2023-04-08T06:44:12;75597.75;;;-146.65;63.23
57094;BME280;42970;50.996;3.706;2023-04-08T06:46:37;75605.81;;;-146.65;62.87
57094;BME280;42970;50.996;3.706;2023-04-08T06:49:02;75611.88;;;-146.65;63.69
57094;BME280;42970;50.996;3.706;2023-04-08T06:51:28;75623.97;;;-146.65;63.81
57094;BME280;42970;50.996;3.706;2023-04-08T06:53:53;75621.97;;;-146.65;63.56
57094;BME280;42970;50.996;3.706;2023-04-08T06:56:19;75617.94;;;-146.65;63.60
57094;BME280;42970;50.996;3.706;2023-04-08T06:58:47;75607.84;;;-146.65;63.41
57094;BME280;42970;50.996;3.706;2023-04-08T07:01:13;75634.06;;;-146.65;63.63
57094;BME280;42970;50.996;3.706;2023-04-08T07:03:40;75623.97;;;-146.65;63.21
57094;BME280;42970;50.996;3.706;2023-04-08T07:06:05;75601.78;;;-146.65;62.53
57094;BME280;42970;50.996;3.706;2023-04-08T07:08:30;75609.84;;;-146.65;62.63
57094;BME280;42970;50.996;3.706;2023-04-08T07:10:56;75605.81;;;-146.65;62.79
57094;BME280;42970;50.996;3.706;2023-04-08T07:13:21;75626.00;;;-146.65;63.26
57094;BME280;42970;50.996;3.706;2023-04-08T07:15:47;75626.00;;;-146.65;63.22
57094;BME280;42970;50.996;3.706;2023-04-08T07:18:12;75599.78;;;-146.65;62.95
57094;BME280;42970;50.996;3.706;2023-04-08T07:20:38;75609.84;;;-146.65;62.69
57094;BME280;42970;50.996;3.706;2023-04-08T07:23:03;75589.69;;;-146.65;61.87
57094;BME280;42970;50.996;3.706;2023-04-08T07:25:29;75581.63;;;-146.65;61.81
57094;BME280;42970;50.996;3.706;2023-04-08T07:27:54;75617.94;;;-146.65;62.45
57094;BME280;42970;50.996;3.706;2023-04-08T07:30:20;75583.63;;;-146.65;61.95
57094;BME280;42970;50.996;3.706;2023-04-08T07:32:46;75577.59;;;-146.65;61.91
57094;BME280;42970;50.996;3.706;2023-04-08T07:35:11;75603.81;;;-146.65;62.61
57094;BME280;42970;50.996;3.706;2023-04-08T07:37:36;75593.72;;;-146.65;62.87
57094;BME280;42970;50.996;3.706;2023-04-08T07:40:03;75603.81;;;-146.65;63.13
57094;BME280;42970;50.996;3.706;2023-04-08T07:42:55;75587.66;;;-146.65;62.84
57094;BME280;42970;50.996;3.706;2023-04-08T07:48:25;75573.53;;;-146.65;62.35
57094;BME280;42970;50.996;3.706;2023-04-08T07:50:50;75569.50;;;-146.65;62.53
57094;BME280;42970;50.996;3.706;2023-04-08T07:53:15;75551.34;;;-146.65;62.62
57094;BME280;42970;50.996;3.706;2023-04-08T07:55:41;75563.47;;;-146.65;61.94
57094;BME280;42970;50.996;3.706;2023-04-08T07:58:06;75557.41;;;-146.65;62.07
57094;BME280;42970;50.996;3.706;2023-04-08T08:00:31;75565.47;;;-146.65;63.10
57094;BME280;42970;50.996;3.706;2023-04-08T08:02:57;75531.19;;;-146.65;63.10
57094;BME280;42970;50.996;3.706;2023-04-08T08:05:22;75549.34;;;-146.65;64.00
57094;BME280;42970;50.996;3.706;2023-04-08T08:07:48;75549.34;;;-146.65;63.66
57094;BME280;42970;50.996;3.706;2023-04-08T08:10:14;75502.94;;;-146.65;62.32
57094;BME280;42970;50.996;3.706;2023-04-08T08:12:39;75529.16;;;-146.65;63.95
57094;BME280;42970;50.996;3.706;2023-04-08T08:15:06;75573.53;;;-146.65;66.18
57094;BME280;42970;50.996;3.706;2023-04-08T08:17:31;75559.44;;;-146.65;65.99
57094;BME280;42970;50.996;3.706;2023-04-08T08:19:57;75549.34;;;-146.65;63.77
57094;BME280;42970;50.996;3.706;2023-04-08T08:22:23;75541.28;;;-146.65;64.33
57094;BME280;42970;50.996;3.706;2023-04-08T08:24:48;75476.72;;;-146.65;63.88
57094;BME280;42970;50.996;3.706;2023-04-08T08:27:13;75468.66;;;-146.65;60.67
57094;BME280;42970;50.996;3.706;2023-04-08T08:29:39;75488.84;;;-146.65;60.85
57094;BME280;42970;50.996;3.706;2023-04-08T08:32:04;75486.81;;;-146.65;58.86
57094;BME280;42970;50.996;3.706;2023-04-08T08:34:30;75484.78;;;-146.65;60.59
57094;BME280;42970;50.996;3.706;2023-04-08T08:36:55;75438.41;;;-146.65;59.19
57094;BME280;42970;50.996;3.706;2023-04-08T08:39:21;75476.72;;;-146.65;58.41
57094;BME280;42970;50.996;3.706;2023-04-08T08:41:46;75529.16;;;-146.65;59.64
57094;BME280;42970;50.996;3.706;2023-04-08T08:47:07;75472.69;;;-146.65;60.46
57094;BME280;42970;50.996;3.706;2023-04-08T08:49:32;75426.31;;;-146.65;58.65
57094;BME280;42970;50.996;3.706;2023-04-08T08:51:57;75450.50;;;-146.65;58.18
57094;BME280;42970;50.996;3.706;2023-04-08T08:54:24;75462.59;;;-146.65;57.68
57094;BME280;42970;50.996;3.706;2023-04-08T08:56:50;75404.13;;;-146.65;56.26
57094;BME280;42970;50.996;3.706;2023-04-08T08:59:15;75406.13;;;-146.65;55.91
57094;BME280;42970;50.996;3.706;2023-04-08T09:01:40;75375.88;;;-146.65;55.08
57094;BME280;42970;50.996;3.706;2023-04-08T09:04:10;75448.50;;;-146.65;56.56
57094;BME280;42970;50.996;3.706;2023-04-08T09:06:36;75464.63;;;-146.65;57.47
57094;BME280;42970;50.996;3.706;2023-04-08T09:09:01;75454.53;;;-146.65;56.47
57094;BME280;42970;50.996;3.706;2023-04-08T09:11:29;75492.88;;;-146.65;56.98
57094;BME280;42970;50.996;3.706;2023-04-08T09:13:55;75484.78;;;-146.65;57.53
57094;BME280;42970;50.996;3.706;2023-04-08T09:16:21;75430.34;;;-146.65;56.41
57094;BME280;42970;50.996;3.706;2023-04-08T09:18:47;75438.41;;;-146.65;55.98
57094;BME280;42970;50.996;3.706;2023-04-08T09:21:14;75416.22;;;-146.65;56.35
57094;BME280;42970;50.996;3.706;2023-04-08T09:23:40;75420.25;;;-146.65;56.54
57094;BME280;42970;50.996;3.706;2023-04-08T09:26:09;75480.75;;;-146.65;58.64
57094;BME280;42970;50.996;3.706;2023-04-08T09:28:35;75452.53;;;-146.65;58.72
57094;BME280;42970;50.996;3.706;2023-04-08T09:31:08;75438.41;;;-146.65;57.65
57094;BME280;42970;50.996;3.706;2023-04-08T09:33:41;75420.25;;;-146.65;58.37
57094;BME280;42970;50.996;3.706;2023-04-08T09:36:06;75432.34;;;-146.65;57.55
57094;BME280;42970;50.996;3.706;2023-04-08T09:38:32;75406.13;;;-146.65;56.69
57094;BME280;42970;50.996;3.706;2023-04-08T09:40:57;75432.34;;;-146.65;58.62
57094;BME280;42970;50.996;3.706;2023-04-08T09:43:23;75434.38;;;-146.65;59.60
57094;BME280;42970;50.996;3.706;2023-04-08T09:45:49;75361.75;;;-146.65;57.63
57094;BME280;42970;50.996;3.706;2023-04-08T09:48:16;75392.00;;;-146.65;56.53
57094;BME280;42970;50.996;3.706;2023-04-08T09:50:42;75377.91;;;-146.65;56.35
57094;BME280;42970;50.996;3.706;2023-04-08T09:53:15;75410.16;;;-146.65;58.10
57094;BME280;42970;50.996;3.706;2023-04-08T09:55:43;75412.19;;;-146.65;58.17
57094;BME280;42970;50.996;3.706;2023-04-08T09:58:16;75404.13;;;-146.65;57.92
57094;BME280;42970;50.996;3.706;2023-04-08T10:00:46;75379.91;;;-146.65;58.61
57094;BME280;42970;50.996;3.706;2023-04-08T10:05:49;75367.81;;;-146.65;57.91
57094;BME280;42970;50.996;3.706;2023-04-08T10:08:16;75373.88;;;-146.65;57.42
57094;BME280;42970;50.996;3.706;2023-04-08T10:10:42;75371.84;;;-146.65;57.62
57094;BME280;42970;50.996;3.706;2023-04-08T10:13:07;75371.84;;;-146.65;56.79
57094;BME280;42970;50.996;3.706;2023-04-08T10:15:33;75377.91;;;-146.65;58.02
57094;BME280;42970;50.996;3.706;2023-04-08T10:23:00;75464.63;;;-146.65;59.57
57094;BME280;42970;50.996;3.706;2023-04-08T10:25:29;75450.50;;;-146.65;59.79
57094;BME280;42970;50.996;3.706;2023-04-08T10:27:55;75484.78;;;-146.65;60.88
57094;BME280;42970;50.996;3.706;2023-04-08T10:32:52;75545.31;;;-146.65;61.71
57094;BME280;42970;50.996;3.706;2023-04-08T10:35:29;75511.03;;;-146.65;61.80
57094;BME280;42970;50.996;3.706;2023-04-08T10:37:56;75464.63;;;-146.65;60.96
57094;BME280;42970;50.996;3.706;2023-04-08T10:40:21;75460.59;;;-146.65;60.35
57094;BME280;42970;50.996;3.706;2023-04-08T10:42:46;75448.50;;;-146.65;59.85
57094;BME280;42970;50.996;3.706;2023-04-08T10:45:17;75440.44;;;-146.65;59.63
57094;BME280;42970;50.996;3.706;2023-04-08T10:47:43;75404.13;;;-146.65;58.96
57094;BME280;42970;50.996;3.706;2023-04-08T10:50:15;75379.91;;;-146.65;58.28
57094;BME280;42970;50.996;3.706;2023-04-08T10:52:51;75367.81;;;-146.65;57.73
57094;BME280;42970;50.996;3.706;2023-04-08T10:55:22;75402.09;;;-146.65;56.42
57094;BME280;42970;50.996;3.706;2023-04-08T10:57:49;75303.28;;;-146.65;54.49
57094;BME280;42970;50.996;3.706;2023-04-08T11:00:17;75329.50;;;-146.65;54.04
57094;BME280;42970;50.996;3.706;2023-04-08T11:02:42;75400.09;;;-146.65;55.31
57094;BME280;42970;50.996;3.706;2023-04-08T11:05:11;75275.03;;;-146.65;54.31
57094;BME280;42970;50.996;3.706;2023-04-08T11:07:40;75260.91;;;-146.65;53.51
57094;BME280;42970;50.996;3.706;2023-04-08T11:10:06;75281.09;;;-146.65;53.30
57094;BME280;42970;50.996;3.706;2023-04-08T11:12:31;75325.47;;;-146.65;54.28
57094;BME280;42970;50.996;3.706;2023-04-08T11:14:58;75357.72;;;-146.65;55.68
57094;BME280;42970;50.996;3.706;2023-04-08T11:17:23;75323.44;;;-146.65;54.60
57094;BME280;42970;50.996;3.706;2023-04-08T11:19:48;75357.72;;;-146.65;55.21
57094;BME280;42970;50.996;3.706;2023-04-08T11:22:14;75327.47;;;-146.65;55.05
57094;BME280;42970;50.996;3.706;2023-04-08T11:24:40;75327.47;;;-146.65;54.03
57094;BME280;42970;50.996;3.706;2023-04-08T11:27:05;75273.03;;;-146.65;52.20
57094;BME280;42970;50.996;3.706;2023-04-08T11:29:31;75222.59;;;-146.65;53.16
57094;BME280;42970;50.996;3.706;2023-04-08T11:31:57;75238.72;;;-146.65;52.00
57094;BME280;42970;50.996;3.706;2023-04-08T11:34:22;75240.75;;;-146.65;52.36
57094;BME280;42970;50.996;3.706;2023-04-08T11:36:49;75234.69;;;-146.65;52.77
57094;BME280;42970;50.996;3.706;2023-04-08T11:39:14;75232.69;;;-146.65;52.77
57094;BME280;42970;50.996;3.706;2023-04-08T11:41:40;75301.25;;;-146.65;53.17
57094;BME280;42970;50.996;3.706;2023-04-08T11:44:05;75218.56;;;-146.65;53.11
57094;BME280;42970;50.996;3.706;2023-04-08T11:46:31;75262.94;;;-146.65;52.62
57094;BME280;42970;50.996;3.706;2023-04-08T11:48:57;75301.25;;;-146.65;53.65
57094;BME280;42970;50.996;3.706;2023-04-08T11:51:23;75275.03;;;-146.65;53.09
57094;BME280;42970;50.996;3.706;2023-04-08T11:53:48;75289.16;;;-146.65;53.67
57094;BME280;42970;50.996;3.706;2023-04-08T11:58:41;75250.84;;;-146.65;54.08
57094;BME280;42970;50.996;3.706;2023-04-08T12:01:06;75186.28;;;-146.65;51.51
57094;BME280;42970;50.996;3.706;2023-04-08T12:03:32;75170.16;;;-146.65;50.97
57094;BME280;42970;50.996;3.706;2023-04-08T12:05:57;75258.91;;;-146.65;52.26
57094;BME280;42970;50.996;3.706;2023-04-08T12:08:23;75232.69;;;-146.65;51.20
57094;BME280;42970;50.996;3.706;2023-04-08T12:10:49;75192.34;;;-146.65;50.31
57094;BME280;42970;50.996;3.706;2023-04-08T12:13:14;75178.22;;;-146.65;50.04
57094;BME280;42970;50.996;3.706;2023-04-08T12:15:39;75145.94;;;-146.65;51.17
57094;BME280;42970;50.996;3.706;2023-04-08T12:18:05;75226.63;;;-146.65;51.61
57094;BME280;42970;50.996;3.706;2023-04-08T12:20:30;75256.88;;;-146.65;52.75
57094;BME280;42970;50.996;3.706;2023-04-08T12:22:55;75210.50;;;-146.65;51.62
57094;BME280;42970;50.996;3.706;2023-04-08T12:25:21;75089.47;;;-146.65;49.84
57094;BME280;42970;50.996;3.706;2023-04-08T12:27:46;75039.06;;;-146.65;49.04
57094;BME280;42970;50.996;3.706;2023-04-08T12:30:11;75063.25;;;-146.65;48.93
57094;BME280;42970;50.996;3.706;2023-04-08T12:32:37;75109.66;;;-146.65;48.94
57094;BME280;42970;50.996;3.706;2023-04-08T12:35:02;75083.44;;;-146.65;49.54
57094;BME280;42970;50.996;3.706;2023-04-08T12:37:28;75111.66;;;-146.65;49.48
57094;BME280;42970;50.996;3.706;2023-04-08T12:39:53;75143.94;;;-146.65;49.26
57094;BME280;42970;50.996;3.706;2023-04-08T12:42:18;75210.50;;;-146.65;50.06
57094;BME280;42970;50.996;3.706;2023-04-08T12:44:43;75240.75;;;-146.65;51.27
57094;BME280;42970;50.996;3.706;2023-04-08T12:47:09;75186.28;;;-146.65;51.62
57094;BME280;42970;50.996;3.706;2023-04-08T12:49:34;75127.81;;;-146.65;50.90
57094;BME280;42970;50.996;3.706;2023-04-08T12:52:00;75087.47;;;-146.65;49.89
57094;BME280;42970;50.996;3.706;2023-04-08T12:54:25;75145.94;;;-146.65;49.14
57094;BME280;42970;50.996;3.706;2023-04-08T12:56:50;75105.63;;;-146.65;48.14
57094;BME280;42970;50.996;3.706;2023-04-08T12:59:16;75093.50;;;-146.65;47.13
57094;BME280;42970;50.996;3.706;2023-04-08T13:01:41;75085.44;;;-146.65;45.41
57094;BME280;42970;50.996;3.706;2023-04-08T13:04:06;75097.56;;;-146.65;46.19
57094;BME280;42970;50.996;3.706;2023-04-08T13:06:32;75081.41;;;-146.65;46.90